createdAt,value
2019-02-20T00:02:11.729Z,73.03
2019-02-20T00:05:16.235Z,73.62
2019-02-20T00:08:20.941Z,72.54
2019-02-20T00:11:25.752Z,72.72
2019-02-20T00:14:30.698Z,72.26
2019-02-20T00:17:35.418Z,72.96
2019-02-20T00:20:39.859Z,72.38
2019-02-20T00:23:44.606Z,72.14
2019-02-20T00:26:49.304Z,72.01
2019-02-20T00:29:53.746Z,72.72
2019-02-20T00:32:58.460Z,73.01
2019-02-20T00:36:02.898Z,72.00
2019-02-20T00:39:09.355Z,73.31
2019-02-20T00:42:14.089Z,73.19
2019-02-20T00:45:23.114Z,71.84
2019-02-20T00:48:29.198Z,72.79
2019-02-20T00:51:35.285Z,72.54
2019-02-20T00:54:39.977Z,73.20
2019-02-20T00:57:44.410Z,73.63
2019-02-20T01:00:48.829Z,73.27
2019-02-20T01:03:53.267Z,72.77
2019-02-20T01:06:57.700Z,73.77
2019-02-20T01:10:02.137Z,72.12
2019-02-20T01:13:06.816Z,72.73
2019-02-20T01:16:11.546Z,73.47
2019-02-20T01:19:15.995Z,72.89
2019-02-20T01:22:20.433Z,72.88
2019-02-20T01:25:24.872Z,73.39
2019-02-20T01:28:29.653Z,72.54
2019-02-20T01:31:34.380Z,73.65
2019-02-20T01:34:39.111Z,74.29
2019-02-20T01:37:43.549Z,74.16
2019-02-20T01:40:47.985Z,73.23
2019-02-20T01:43:52.702Z,73.34
2019-02-20T01:46:57.134Z,73.11
2019-02-20T01:50:01.569Z,73.88
2019-02-20T01:53:10.230Z,72.88
2019-02-20T01:56:12.181Z,73.53
2019-02-20T01:59:16.620Z,73.86
2019-02-20T02:02:21.385Z,73.17
2019-02-20T02:05:25.823Z,73.65
2019-02-20T02:08:30.537Z,73.53
2019-02-20T02:11:34.974Z,73.70
2019-02-20T02:14:39.692Z,73.90
2019-02-20T02:17:44.129Z,73.43
2019-02-20T02:20:48.564Z,73.30
2019-02-20T02:23:53.272Z,73.44
2019-02-20T02:26:57.714Z,73.73
2019-02-20T02:30:02.161Z,73.94
2019-02-20T02:33:06.587Z,73.99
2019-02-20T02:36:11.371Z,73.79
2019-02-20T02:39:15.803Z,73.43
2019-02-20T02:42:20.528Z,74.08
2019-02-20T02:45:25.272Z,74.64
2019-02-20T02:48:29.698Z,74.30
2019-02-20T02:51:34.143Z,74.32
2019-02-20T02:54:38.578Z,73.94
2019-02-20T02:57:43.011Z,74.16
2019-02-20T03:00:47.453Z,74.38
2019-02-20T03:03:52.209Z,74.21
2019-02-20T03:06:56.648Z,74.47
2019-02-20T03:10:01.089Z,74.80
2019-02-20T03:13:05.792Z,75.09
2019-02-20T03:16:10.620Z,75.20
2019-02-20T03:19:15.047Z,74.33
2019-02-20T03:22:19.489Z,74.68
2019-02-20T03:25:24.203Z,75.16
2019-02-20T03:28:28.640Z,74.95
2019-02-20T03:31:33.358Z,75.13
2019-02-20T03:34:38.025Z,75.24
2019-02-20T03:37:42.464Z,74.77
2019-02-20T03:40:46.965Z,75.28
2019-02-20T03:43:51.398Z,75.34
2019-02-20T03:46:55.853Z,75.39
2019-02-20T03:50:00.609Z,74.68
2019-02-20T03:53:05.342Z,74.69
2019-02-20T03:56:09.861Z,74.70
2019-02-20T03:59:14.288Z,74.73
2019-02-20T04:02:19.020Z,74.83
2019-02-20T04:05:23.764Z,74.48
2019-02-20T04:08:28.195Z,75.07
2019-02-20T04:11:32.649Z,75.03
2019-02-20T04:14:38.148Z,74.81
2019-02-20T04:17:42.590Z,75.82
2019-02-20T04:20:47.036Z,75.84
2019-02-20T04:24:01.569Z,75.48
2019-02-20T04:26:57.894Z,75.91
2019-02-20T04:30:02.620Z,76.02
2019-02-20T04:33:07.064Z,76.83
2019-02-20T04:36:11.877Z,77.21
2019-02-20T04:39:16.608Z,77.48
2019-02-20T04:42:21.343Z,77.72
2019-02-20T04:45:26.074Z,78.47
2019-02-20T04:48:30.808Z,78.74
2019-02-20T04:51:35.315Z,78.95
2019-02-20T04:54:39.979Z,79.18
2019-02-20T04:57:44.694Z,78.93
2019-02-20T05:00:49.130Z,78.73
2019-02-20T05:03:53.953Z,78.80
2019-02-20T05:06:58.386Z,78.87
2019-02-20T05:10:02.816Z,78.87
2019-02-20T05:13:08.132Z,78.83
2019-02-20T05:16:12.557Z,78.85
2019-02-20T05:19:17.599Z,78.00
2019-02-20T05:22:22.335Z,77.81
2019-02-20T05:25:27.067Z,77.64
2019-02-20T05:28:31.893Z,76.47
2019-02-20T05:31:36.325Z,76.25
2019-02-20T05:34:40.762Z,76.86
2019-02-20T05:37:45.201Z,77.45
2019-02-20T05:40:49.637Z,77.41
2019-02-20T05:43:54.077Z,77.94
2019-02-20T05:46:59.048Z,77.16
2019-02-20T05:50:03.656Z,77.19
2019-02-20T05:53:08.094Z,77.72
2019-02-20T05:56:12.829Z,77.93
2019-02-20T05:59:17.561Z,77.99
2019-02-20T06:02:22.006Z,77.70
2019-02-20T06:05:26.732Z,77.68
2019-02-20T06:08:31.564Z,77.97
2019-02-20T06:11:36.001Z,78.15
2019-02-20T06:14:40.434Z,78.18
2019-02-20T06:17:45.229Z,77.39
2019-02-20T06:20:49.657Z,76.73
2019-02-20T06:23:54.096Z,77.12
2019-02-20T06:26:58.834Z,77.38
2019-02-20T06:30:04.197Z,78.14
2019-02-20T06:33:08.626Z,77.80
2019-02-20T06:36:13.302Z,77.38
2019-02-20T06:39:17.745Z,78.18
2019-02-20T06:42:22.182Z,78.64
2019-02-20T06:45:26.629Z,78.86
2019-02-20T06:48:31.066Z,79.51
2019-02-20T06:51:35.837Z,78.89
2019-02-20T06:54:40.574Z,79.07
2019-02-20T06:57:45.289Z,78.59
2019-02-20T07:00:49.728Z,78.74
2019-02-20T07:03:54.169Z,78.75
2019-02-20T07:07:15.425Z,79.49
2019-02-20T07:10:51.831Z,79.66
2019-02-20T07:14:25.787Z,79.69
2019-02-20T07:17:47.067Z,79.94
2019-02-20T07:21:08.387Z,79.49
2019-02-20T07:24:26.445Z,79.06
2019-02-20T07:27:49.188Z,79.33
2019-02-20T07:30:53.768Z,79.67
2019-02-20T07:33:58.206Z,79.19
2019-02-20T07:37:02.644Z,79.25
2019-02-20T07:40:09.025Z,79.26
2019-02-20T07:43:13.470Z,78.87
2019-02-20T07:46:17.990Z,77.76
2019-02-20T07:49:22.817Z,76.24
2019-02-20T07:52:27.245Z,76.15
2019-02-20T07:55:31.692Z,75.84
2019-02-20T07:58:36.134Z,76.02
2019-02-20T08:01:40.574Z,76.27
2019-02-20T08:04:45.012Z,77.27
2019-02-20T08:07:49.457Z,77.56
2019-02-20T08:10:53.946Z,76.29
2019-02-20T08:13:58.385Z,76.43
2019-02-20T08:17:03.138Z,76.19
2019-02-20T08:20:10.191Z,76.39
2019-02-20T08:23:14.951Z,77.20
2019-02-20T08:26:19.390Z,77.04
2019-02-20T08:29:23.826Z,77.06
2019-02-20T08:32:28.273Z,77.00
2019-02-20T08:35:32.718Z,75.57
2019-02-20T08:38:37.496Z,75.03
2019-02-20T08:41:42.237Z,75.52
2019-02-20T08:44:46.941Z,75.60
2019-02-20T08:47:51.378Z,75.39
2019-02-20T08:50:56.095Z,75.03
2019-02-20T08:54:00.537Z,75.34
2019-02-20T08:57:05.255Z,74.53
2019-02-20T09:00:14.826Z,74.09
2019-02-20T09:03:19.266Z,74.15
2019-02-20T09:06:24.065Z,73.93
2019-02-20T09:09:28.786Z,73.72
2019-02-20T09:12:33.238Z,73.56
2019-02-20T09:15:37.677Z,73.22
2019-02-20T09:18:42.466Z,72.26
2019-02-20T09:21:46.908Z,72.13
2019-02-20T09:24:51.408Z,71.90
2019-02-20T09:27:55.867Z,71.79
2019-02-20T09:31:00.305Z,71.47
2019-02-20T09:34:04.735Z,71.70
2019-02-20T09:37:09.522Z,70.76
2019-02-20T09:40:18.962Z,70.73
2019-02-20T09:43:23.888Z,69.86
2019-02-20T09:46:28.338Z,69.43
2019-02-20T09:49:32.771Z,68.69
2019-02-20T09:52:37.216Z,65.08
2019-02-20T09:55:50.895Z,59.52
2019-02-20T09:58:47.829Z,55.38
2019-02-20T10:01:52.284Z,52.41
2019-02-20T10:04:56.735Z,51.14
2019-02-20T10:08:01.539Z,49.71
2019-02-20T10:11:05.988Z,47.25
2019-02-20T10:14:10.443Z,46.97
2019-02-20T10:17:14.897Z,46.41
2019-02-20T10:20:19.330Z,47.35
2019-02-20T10:23:23.785Z,45.96
2019-02-20T10:26:28.229Z,44.68
2019-02-20T10:29:32.677Z,44.78
2019-02-20T10:32:37.127Z,45.21
2019-02-20T10:35:41.568Z,45.53
2019-02-20T10:38:46.279Z,43.66
2019-02-20T10:41:50.713Z,43.37
2019-02-20T10:44:55.432Z,45.18
2019-02-20T10:47:59.890Z,45.32
2019-02-20T10:51:04.587Z,45.25
2019-02-20T10:54:09.330Z,46.01
2019-02-20T10:57:13.778Z,45.97
2019-02-20T11:00:24.290Z,45.93
2019-02-20T11:03:29.345Z,45.70
2019-02-20T11:06:34.111Z,46.26
2019-02-20T11:09:38.815Z,47.18
2019-02-20T11:12:43.545Z,47.40
2019-02-20T11:15:48.271Z,47.54
2019-02-20T11:18:53.000Z,49.55
2019-02-20T11:21:57.745Z,49.02
2019-02-20T11:25:02.470Z,49.93
2019-02-20T11:28:07.193Z,50.34
2019-02-20T11:31:11.634Z,51.00
2019-02-20T11:34:16.126Z,51.54
2019-02-20T11:37:20.795Z,51.25
2019-02-20T11:40:25.289Z,50.57
2019-02-20T11:43:29.737Z,51.35
2019-02-20T11:46:34.448Z,51.64
2019-02-20T11:49:38.891Z,50.65
2019-02-20T11:52:44.218Z,49.20
2019-02-20T11:55:48.712Z,48.83
2019-02-20T11:58:53.476Z,47.21
2019-02-20T12:01:58.206Z,47.67
2019-02-20T12:05:02.650Z,46.46
2019-02-20T12:08:07.403Z,46.67
2019-02-20T12:11:11.854Z,46.07
2019-02-20T12:14:16.295Z,45.18
2019-02-20T12:17:21.363Z,45.49
2019-02-20T12:20:25.868Z,44.78
2019-02-20T12:23:36.526Z,44.27
2019-02-20T12:26:36.471Z,44.51
2019-02-20T12:29:40.916Z,44.00
2019-02-20T12:32:45.356Z,42.78
2019-02-20T12:35:49.801Z,43.43
2019-02-20T12:38:54.260Z,44.25
2019-02-20T12:41:59.104Z,45.10
2019-02-20T12:45:03.945Z,42.84
2019-02-20T12:48:08.384Z,42.18
2019-02-20T12:51:13.184Z,42.05
2019-02-20T12:54:18.171Z,41.08
2019-02-20T12:57:22.809Z,41.52
2019-02-20T13:00:27.578Z,41.26
2019-02-20T13:03:32.017Z,41.00
2019-02-20T13:06:36.736Z,41.51
2019-02-20T13:09:41.245Z,41.03
2019-02-20T13:12:46.819Z,41.13
2019-02-20T13:15:51.410Z,40.51
2019-02-20T13:18:55.855Z,40.44
2019-02-20T13:22:00.301Z,40.86
2019-02-20T13:25:05.786Z,40.49
2019-02-20T13:28:10.221Z,40.30
2019-02-20T13:31:14.991Z,38.67
2019-02-20T13:34:19.723Z,37.66
2019-02-20T13:37:24.452Z,36.12
2019-02-20T13:40:28.911Z,35.87
2019-02-20T13:43:33.331Z,34.17
2019-02-20T13:46:37.780Z,33.49
2019-02-20T13:49:42.214Z,34.45
2019-02-20T13:52:52.468Z,34.72
2019-02-20T13:55:53.732Z,33.26
2019-02-20T13:58:58.261Z,33.48
2019-02-20T14:02:03.019Z,34.96
2019-02-20T14:05:09.396Z,36.88
2019-02-20T14:08:14.428Z,37.93
2019-02-20T14:11:18.871Z,37.43
2019-02-20T14:14:23.375Z,36.92
2019-02-20T14:17:28.292Z,37.02
2019-02-20T14:20:32.809Z,35.80
2019-02-20T14:23:37.246Z,36.29
2019-02-20T14:26:42.395Z,37.08
2019-02-20T14:29:46.841Z,38.75
2019-02-20T14:32:51.283Z,39.38
2019-02-20T14:35:56.382Z,40.11
2019-02-20T14:39:00.817Z,39.36
2019-02-20T14:42:05.531Z,39.26
2019-02-20T14:45:16.162Z,39.61
2019-02-20T14:48:20.585Z,39.94
2019-02-20T14:51:25.361Z,40.59
2019-02-20T14:54:29.798Z,41.56
2019-02-20T14:57:34.236Z,42.56
2019-02-20T15:00:38.939Z,43.33
2019-02-20T15:03:43.381Z,44.52
2019-02-20T15:06:48.089Z,44.85
2019-02-20T15:09:54.068Z,45.33
2019-02-20T15:12:58.557Z,45.84
2019-02-20T15:16:03.001Z,45.86
2019-02-20T15:19:07.442Z,46.78
2019-02-20T15:22:12.155Z,47.32
2019-02-20T15:25:16.913Z,47.52
2019-02-20T15:28:21.621Z,48.65
2019-02-20T15:31:33.456Z,48.72
2019-02-20T15:34:32.221Z,49.44
2019-02-20T15:37:36.678Z,49.82
2019-02-20T15:40:41.123Z,50.37
2019-02-20T15:43:45.562Z,50.85
2019-02-20T15:46:50.305Z,51.19
2019-02-20T15:49:54.743Z,51.15
2019-02-20T15:52:59.462Z,51.66
2019-02-20T15:56:03.913Z,51.69
2019-02-20T15:59:08.356Z,51.76
2019-02-20T16:02:13.146Z,51.95
2019-02-20T16:05:17.592Z,52.15
2019-02-20T16:08:22.037Z,52.59
2019-02-20T16:11:26.822Z,53.24
2019-02-20T16:14:31.554Z,53.32
2019-02-20T16:17:36.074Z,54.09
2019-02-20T16:20:40.812Z,55.44
2019-02-20T16:23:45.301Z,55.98
2019-02-20T16:26:50.077Z,56.89
2019-02-20T16:29:54.796Z,57.09
2019-02-20T16:33:00.755Z,57.12
2019-02-20T16:36:05.361Z,57.83
2019-02-20T16:39:09.792Z,57.83
2019-02-20T16:42:14.535Z,58.28
2019-02-20T16:45:26.787Z,58.74
2019-02-20T16:48:31.682Z,59.13
2019-02-20T16:51:36.121Z,59.13
2019-02-20T16:54:40.835Z,59.43
2019-02-20T16:57:45.644Z,59.59
2019-02-20T17:00:50.596Z,60.08
2019-02-20T17:03:55.035Z,60.35
2019-02-20T17:06:59.473Z,60.90
2019-02-20T17:10:04.476Z,61.31
2019-02-20T17:13:09.215Z,61.70
2019-02-20T17:16:13.947Z,62.22
2019-02-20T17:19:18.682Z,62.27
2019-02-20T17:22:23.512Z,62.91
2019-02-20T17:25:28.555Z,62.71
2019-02-20T17:28:33.279Z,62.87
2019-02-20T17:31:37.718Z,63.67
2019-02-20T17:34:42.154Z,64.13
2019-02-20T17:37:46.592Z,64.09
2019-02-20T17:40:51.022Z,64.27
2019-02-20T17:43:55.711Z,63.95
2019-02-20T17:47:00.174Z,63.98
2019-02-20T17:50:06.923Z,63.70
2019-02-20T17:53:11.363Z,63.63
2019-02-20T17:56:15.792Z,63.47
2019-02-20T17:59:20.228Z,63.28
2019-02-20T18:02:24.699Z,63.98
2019-02-20T18:05:29.440Z,63.26
2019-02-20T18:08:34.177Z,63.69
2019-02-20T18:11:38.905Z,63.96
2019-02-20T18:14:43.347Z,64.02
2019-02-20T18:17:47.789Z,64.24
2019-02-20T18:20:52.290Z,64.66
2019-02-20T18:23:56.999Z,65.90
2019-02-20T18:27:01.435Z,65.49
2019-02-20T18:30:14.743Z,66.51
2019-02-20T18:33:19.203Z,66.08
2019-02-20T18:36:23.920Z,66.62
2019-02-20T18:39:28.661Z,66.04
2019-02-20T18:42:33.088Z,66.77
2019-02-20T18:45:37.798Z,67.82
2019-02-20T18:48:42.238Z,67.83
2019-02-20T18:51:46.951Z,66.90
2019-02-20T18:54:51.787Z,67.45
2019-02-20T18:57:56.262Z,66.93
2019-02-20T19:01:00.702Z,67.67
2019-02-20T19:04:07.994Z,67.39
2019-02-20T19:07:12.268Z,67.72
2019-02-20T19:10:24.559Z,67.58
2019-02-20T19:14:24.584Z,67.88
2019-02-20T19:17:55.015Z,68.94
2019-02-20T19:21:22.028Z,68.95
2019-02-20T19:24:46.258Z,69.01
2019-02-20T19:28:07.395Z,69.27
2019-02-20T19:31:54.327Z,68.95
2019-02-20T19:35:21.355Z,68.94
2019-02-20T19:38:42.465Z,68.29
2019-02-20T19:42:18.878Z,69.31
2019-02-20T19:45:42.738Z,69.89
2019-02-20T19:49:06.652Z,70.13
2019-02-20T19:52:45.894Z,70.47
2019-02-20T19:55:55.265Z,70.78
2019-02-20T19:59:30.328Z,70.42
2019-02-20T20:03:09.050Z,71.12
2019-02-20T20:06:44.197Z,71.69
2019-02-20T20:10:14.410Z,71.99
2019-02-20T20:13:32.482Z,72.03
2019-02-20T20:16:51.207Z,72.87
2019-02-20T20:20:25.614Z,73.00
2019-02-20T20:24:10.980Z,73.27
2019-02-20T20:27:35.022Z,73.62
2019-02-20T20:31:02.020Z,73.03
2019-02-20T20:34:19.674Z,72.79
2019-02-20T20:37:40.555Z,72.46
2019-02-20T20:41:09.208Z,71.43
2019-02-20T20:44:30.841Z,71.15
2019-02-20T20:47:52.052Z,70.76
2019-02-20T20:51:07.015Z,70.88
2019-02-20T20:54:52.161Z,71.04
2019-02-20T20:58:49.699Z,71.11
2019-02-20T21:02:07.449Z,71.46
2019-02-20T21:05:42.261Z,71.40
2019-02-20T21:08:54.348Z,71.48
2019-02-20T21:12:10.360Z,71.57
2019-02-20T21:16:05.545Z,71.34
2019-02-20T21:19:54.057Z,71.52
2019-02-20T21:23:19.851Z,71.44
2019-02-20T21:26:53.332Z,71.47
2019-02-20T21:30:17.643Z,71.77
2019-02-20T21:33:52.299Z,71.87
2019-02-20T21:37:19.523Z,71.46
2019-02-20T21:41:00.460Z,71.20
2019-02-20T21:44:39.087Z,71.16
2019-02-20T21:47:59.534Z,69.54
2019-02-20T21:51:34.085Z,69.43
2019-02-20T21:54:51.882Z,69.33
2019-02-20T21:58:17.475Z,69.97
2019-02-20T22:01:38.518Z,70.36
2019-02-20T22:04:59.628Z,70.39
2019-02-20T22:08:32.338Z,70.76
2019-02-20T22:11:47.496Z,70.22
2019-02-20T22:15:15.575Z,70.58
2019-02-20T22:18:48.451Z,70.78
2019-02-20T22:22:18.298Z,70.93
2019-02-20T22:25:30.187Z,70.90
2019-02-20T22:29:03.966Z,71.36
2019-02-20T22:32:40.786Z,70.92
2019-02-20T22:36:13.734Z,71.87
2019-02-20T22:39:49.977Z,71.31
2019-02-20T22:43:17.756Z,70.07
2019-02-20T22:46:39.330Z,69.87
2019-02-20T22:49:56.458Z,69.88
2019-02-20T22:53:05.494Z,71.13
2019-02-20T22:56:45.027Z,71.42
2019-02-20T23:00:21.810Z,71.99
2019-02-20T23:03:54.941Z,71.99
2019-02-20T23:07:13.361Z,71.34
2019-02-20T23:10:42.757Z,71.98
2019-02-20T23:14:04.107Z,72.73
2019-02-20T23:17:08.918Z,73.33
2019-02-20T23:20:13.434Z,72.76
2019-02-20T23:23:17.878Z,72.93
2019-02-20T23:26:22.318Z,73.09
2019-02-20T23:29:26.763Z,73.20
2019-02-20T23:32:31.191Z,73.30
2019-02-20T23:35:35.647Z,72.80
2019-02-20T23:38:40.397Z,72.99
2019-02-20T23:41:44.833Z,73.29
2019-02-20T23:44:49.270Z,73.69
2019-02-20T23:47:53.700Z,73.60
2019-02-20T23:50:58.398Z,73.06
2019-02-20T23:54:02.842Z,74.16
2019-02-20T23:57:07.655Z,74.19
